createdAt,value
2023-02-21T00:04:44.639Z,100.00
2023-02-21T00:15:05.067Z,100.00
2023-02-21T00:25:25.556Z,100.00
2023-02-21T00:35:46.213Z,100.00
2023-02-21T00:46:07.509Z,100.00
2023-02-21T00:56:29.447Z,100.00
2023-02-21T01:06:49.688Z,99.25
2023-02-21T01:17:13.468Z,99.38
2023-02-21T01:27:34.037Z,100.00
2023-02-21T01:37:55.215Z,98.70
2023-02-21T01:48:15.744Z,98.56
2023-02-21T01:58:38.613Z,92.34
2023-02-21T02:08:59.022Z,93.68
2023-02-21T02:19:13.283Z,94.97
2023-02-21T02:29:49.097Z,96.08
2023-02-21T02:39:56.811Z,100.00
2023-02-21T02:50:00.432Z,100.00
2023-02-21T03:00:04.413Z,100.00
2023-02-21T03:10:27.150Z,100.00
2023-02-21T03:20:29.644Z,100.00
2023-02-21T03:30:31.781Z,100.00
2023-02-21T03:40:34.497Z,100.00
2023-02-21T03:50:42.109Z,98.98
2023-02-21T04:00:44.166Z,95.94
2023-02-21T04:10:52.824Z,90.61
2023-02-21T04:20:54.621Z,84.59
2023-02-21T04:30:56.415Z,87.38
2023-02-21T04:40:58.429Z,85.71
2023-02-21T04:51:13.401Z,88.31
2023-02-21T05:01:19.540Z,86.99
2023-02-21T05:11:22.344Z,90.21
2023-02-21T05:21:30.210Z,91.45
2023-02-21T05:31:32.018Z,86.98
2023-02-21T05:41:38.051Z,87.38
2023-02-21T05:51:42.658Z,88.26
2023-02-21T06:01:47.877Z,88.06
2023-02-21T06:11:52.009Z,84.44
2023-02-21T06:21:53.719Z,82.75
2023-02-21T06:32:03.235Z,82.58
2023-02-21T06:42:17.169Z,82.16
2023-02-21T06:52:19.925Z,80.29
2023-02-21T07:02:31.796Z,78.39
2023-02-21T07:12:34.543Z,76.32
2023-02-21T07:22:39.568Z,74.06
2023-02-21T07:32:42.726Z,74.53
2023-02-21T07:42:49.510Z,73.32
2023-02-21T07:52:56.850Z,70.87
2023-02-21T08:02:59.353Z,67.40
2023-02-21T08:13:01.001Z,66.35
2023-02-21T08:23:04.040Z,61.51
2023-02-21T08:33:06.382Z,60.57
2023-02-21T08:43:09.155Z,59.43
2023-02-21T08:53:15.409Z,57.39
2023-02-21T09:03:17.423Z,55.91
2023-02-21T09:13:19.957Z,54.27
2023-02-21T09:23:22.244Z,53.97
2023-02-21T09:33:25.278Z,53.73
2023-02-21T09:43:33.412Z,51.35
2023-02-21T09:53:43.018Z,51.73
2023-02-21T10:04:26.203Z,50.22
2023-02-21T10:14:48.691Z,49.08
2023-02-21T10:24:52.009Z,48.59
2023-02-21T10:34:59.036Z,46.12
2023-02-21T10:45:04.122Z,44.79
2023-02-21T10:55:32.302Z,46.15
2023-02-21T11:05:38.277Z,45.40
2023-02-21T11:15:44.026Z,44.45
2023-02-21T11:25:49.188Z,41.42
2023-02-21T11:35:55.194Z,42.50
2023-02-21T11:46:18.968Z,40.53
2023-02-21T11:56:46.276Z,38.43
2023-02-21T12:07:08.666Z,38.60
2023-02-21T12:17:47.463Z,35.03
2023-02-21T12:27:56.130Z,38.80
2023-02-21T12:38:04.528Z,38.62
2023-02-21T12:48:17.151Z,46.12
2023-02-21T12:58:37.469Z,46.28
2023-02-21T13:08:51.458Z,49.37
2023-02-21T13:19:02.688Z,50.52
2023-02-21T13:29:22.890Z,46.52
2023-02-21T13:39:32.295Z,45.04
2023-02-21T13:49:58.072Z,45.13
2023-02-21T13:59:59.817Z,44.97
2023-02-21T14:10:17.041Z,53.76
2023-02-21T14:20:22.209Z,58.59
2023-02-21T14:30:30.070Z,58.24
2023-02-21T14:40:38.605Z,44.42
2023-02-21T14:51:18.031Z,44.31
2023-02-21T15:01:19.943Z,48.53
2023-02-21T15:11:26.298Z,54.26
2023-02-21T15:21:28.351Z,58.90
2023-02-21T15:31:34.300Z,62.66
2023-02-21T15:41:46.418Z,64.75
2023-02-21T15:51:50.467Z,66.26
2023-02-21T16:02:16.499Z,68.72
2023-02-21T16:12:40.006Z,71.15
2023-02-21T16:23:06.825Z,73.27
2023-02-21T16:33:14.624Z,74.78
2023-02-21T16:43:24.414Z,75.51
2023-02-21T16:53:41.267Z,77.44
2023-02-21T17:14:56.256Z,77.03
2023-02-21T17:25:11.453Z,76.10
2023-02-21T17:45:50.879Z,77.17
2023-02-21T17:55:52.875Z,76.63
2023-02-21T18:05:57.004Z,76.21
2023-02-21T18:26:47.245Z,76.01
2023-02-21T18:36:51.780Z,77.47
2023-02-21T18:46:56.847Z,78.69
2023-02-21T18:57:01.239Z,79.24
2023-02-21T19:07:09.036Z,79.32
2023-02-21T19:17:12.548Z,78.71
2023-02-21T19:27:16.301Z,79.13
2023-02-21T19:37:21.738Z,78.24
2023-02-21T19:47:24.365Z,83.85
2023-02-21T19:57:32.099Z,85.78
2023-02-21T20:07:36.222Z,90.25
2023-02-21T20:17:39.963Z,95.13
2023-02-21T20:27:47.212Z,97.81
2023-02-21T20:38:05.148Z,100.00
2023-02-21T20:48:14.021Z,100.00
2023-02-21T20:58:18.880Z,100.00
2023-02-21T21:08:24.255Z,100.00
2023-02-21T21:18:27.953Z,100.00
2023-02-21T21:28:41.569Z,100.00
2023-02-21T21:38:45.293Z,100.00
2023-02-21T21:48:49.672Z,100.00
2023-02-21T21:58:52.550Z,100.00
2023-02-21T22:08:56.032Z,100.00
2023-02-21T22:18:59.677Z,100.00
2023-02-21T22:29:07.078Z,100.00
2023-02-21T22:39:20.546Z,100.00
2023-02-21T22:49:22.360Z,100.00
2023-02-21T22:59:26.771Z,100.00
2023-02-21T23:09:30.293Z,100.00
2023-02-21T23:19:36.125Z,100.00
2023-02-21T23:29:54.522Z,100.00
2023-02-21T23:39:56.134Z,100.00
2023-02-21T23:49:59.559Z,100.00
